createdAt,value
2018-01-26T00:01:21.539Z,9.47
2018-01-26T00:03:49.003Z,9.90
2018-01-26T00:06:16.470Z,7.30
2018-01-26T00:08:43.948Z,7.00
2018-01-26T00:11:12.185Z,10.40
2018-01-26T00:13:39.650Z,6.13
2018-01-26T00:16:07.497Z,12.73
2018-01-26T00:18:34.981Z,5.63
2018-01-26T00:21:02.524Z,6.40
2018-01-26T00:23:30.004Z,7.70
2018-01-26T00:25:57.464Z,9.93
2018-01-26T00:28:24.944Z,8.63
2018-01-26T00:30:52.401Z,10.73
2018-01-26T00:33:19.897Z,12.90
2018-01-26T00:35:47.365Z,6.63
2018-01-26T00:38:14.814Z,16.93
2018-01-26T00:40:42.277Z,17.70
2018-01-26T00:43:09.773Z,10.30
2018-01-26T00:45:37.238Z,9.30
2018-01-26T00:48:04.697Z,8.40
2018-01-26T00:50:32.175Z,10.40
2018-01-26T00:53:00.394Z,12.77
2018-01-26T00:55:27.865Z,12.83
2018-01-26T00:57:55.317Z,7.17
2018-01-26T01:00:22.785Z,5.90
2018-01-26T01:02:50.242Z,6.00
2018-01-26T01:05:17.735Z,10.50
2018-01-26T01:07:45.609Z,13.67
2018-01-26T01:10:13.062Z,12.03
2018-01-26T01:12:40.530Z,15.23
2018-01-26T01:15:08.807Z,9.50
2018-01-26T01:17:36.250Z,17.53
2018-01-26T01:20:03.727Z,9.47
2018-01-26T01:22:31.955Z,10.07
2018-01-26T01:25:00.177Z,9.97
2018-01-26T01:27:28.431Z,17.90
2018-01-26T01:29:55.881Z,9.60
2018-01-26T01:32:23.346Z,14.50
2018-01-26T01:34:50.869Z,9.40
2018-01-26T01:37:18.327Z,9.23
2018-01-26T01:39:45.816Z,14.63
2018-01-26T01:42:13.265Z,15.50
2018-01-26T01:44:40.733Z,14.93
2018-01-26T01:47:08.189Z,16.73
2018-01-26T01:49:35.665Z,12.50
2018-01-26T01:52:03.119Z,14.60
2018-01-26T01:54:30.652Z,14.83
2018-01-26T01:56:58.105Z,14.93
2018-01-26T01:59:25.585Z,17.53
2018-01-26T02:01:53.038Z,12.00
2018-01-26T02:04:20.515Z,18.00
2018-01-26T02:06:48.720Z,21.70
2018-01-26T02:09:16.950Z,17.97
2018-01-26T02:11:44.411Z,20.00
2018-01-26T02:14:11.884Z,19.80
2018-01-26T02:16:39.379Z,23.57
2018-01-26T02:19:06.851Z,23.00
2018-01-26T02:21:34.348Z,17.13
2018-01-26T02:24:01.814Z,18.47
2018-01-26T02:26:29.317Z,19.07
2018-01-26T02:28:56.829Z,15.53
2018-01-26T02:31:24.358Z,19.93
2018-01-26T02:33:51.834Z,22.20
2018-01-26T02:36:19.353Z,25.37
2018-01-26T02:38:46.819Z,22.40
2018-01-26T02:41:14.298Z,20.33
2018-01-26T02:43:41.767Z,30.63
2018-01-26T02:46:09.261Z,31.50
2018-01-26T02:48:36.729Z,24.50
2018-01-26T02:51:04.965Z,20.33
2018-01-26T02:53:32.418Z,18.87
2018-01-26T02:55:59.905Z,22.27
2018-01-26T02:58:27.398Z,20.43
2018-01-26T03:00:54.841Z,26.20
2018-01-26T03:03:22.338Z,22.40
2018-01-26T03:05:49.780Z,25.67
2018-01-26T03:08:17.260Z,30.10
2018-01-26T03:10:44.715Z,23.50
2018-01-26T03:13:12.185Z,16.37
2018-01-26T03:15:39.652Z,14.83
2018-01-26T03:18:07.109Z,20.87
2018-01-26T03:20:34.567Z,36.43
2018-01-26T03:23:02.064Z,36.53
2018-01-26T03:25:30.302Z,20.20
2018-01-26T03:27:57.753Z,27.50
2018-01-26T03:30:25.226Z,34.20
2018-01-26T03:32:52.685Z,28.40
2018-01-26T03:35:20.164Z,23.27
2018-01-26T03:37:48.384Z,24.10
2018-01-26T03:40:15.870Z,22.77
2018-01-26T03:42:43.344Z,27.43
2018-01-26T03:45:10.821Z,30.93
2018-01-26T03:47:39.078Z,19.87
2018-01-26T03:50:06.530Z,27.33
2018-01-26T03:52:39.842Z,26.80
2018-01-26T03:55:08.079Z,17.83
2018-01-26T03:57:35.545Z,35.53
2018-01-26T04:00:03.010Z,26.37
2018-01-26T04:02:30.467Z,24.03
2018-01-26T04:04:57.938Z,23.43
2018-01-26T04:07:25.403Z,18.43
2018-01-26T04:09:53.629Z,20.03
2018-01-26T04:12:21.093Z,32.97
2018-01-26T04:14:48.545Z,23.17
2018-01-26T04:17:16.025Z,23.43
2018-01-26T04:19:43.493Z,26.13
2018-01-26T04:22:10.988Z,25.60
2018-01-26T04:24:39.216Z,30.90
2018-01-26T04:27:06.700Z,29.07
2018-01-26T04:29:34.187Z,25.57
2018-01-26T04:32:02.421Z,29.43
2018-01-26T04:34:29.904Z,25.83
2018-01-26T04:36:58.129Z,33.60
2018-01-26T04:39:25.595Z,22.30
2018-01-26T04:41:53.077Z,29.93
2018-01-26T04:44:20.554Z,22.40
2018-01-26T04:46:48.012Z,26.20
2018-01-26T04:49:16.241Z,28.30
2018-01-26T04:51:43.735Z,27.00
2018-01-26T04:54:11.215Z,21.10
2018-01-26T04:56:39.449Z,21.50
2018-01-26T04:59:06.922Z,30.50
2018-01-26T05:01:34.536Z,25.17
2018-01-26T05:04:02.009Z,26.50
2018-01-26T05:06:29.479Z,23.40
2018-01-26T05:08:56.952Z,26.67
2018-01-26T05:11:24.515Z,26.37
2018-01-26T05:13:52.006Z,23.23
2018-01-26T05:16:20.276Z,24.33
2018-01-26T05:18:47.746Z,31.43
2018-01-26T05:21:15.960Z,34.17
2018-01-26T05:23:43.479Z,31.50
2018-01-26T05:26:10.954Z,25.20
2018-01-26T05:28:38.479Z,18.97
2018-01-26T05:31:06.268Z,22.07
2018-01-26T05:33:34.646Z,26.60
2018-01-26T05:36:03.306Z,23.30
2018-01-26T05:38:31.347Z,28.70
2018-01-26T05:40:58.818Z,26.23
2018-01-26T05:43:26.287Z,34.93
2018-01-26T05:45:53.768Z,25.43
2018-01-26T05:48:22.027Z,26.23
2018-01-26T05:50:49.539Z,31.40
2018-01-26T05:53:17.010Z,29.30
2018-01-26T05:55:44.520Z,41.43
2018-01-26T05:58:12.769Z,35.30
2018-01-26T06:00:40.258Z,29.50
2018-01-26T06:03:08.510Z,32.50
2018-01-26T06:05:35.991Z,25.70
2018-01-26T06:08:03.486Z,23.47
2018-01-26T06:10:30.967Z,36.17
2018-01-26T06:12:58.458Z,35.53
2018-01-26T06:15:25.958Z,50.23
2018-01-26T06:17:53.456Z,21.67
2018-01-26T06:20:21.126Z,24.10
2018-01-26T06:22:48.601Z,19.27
2018-01-26T06:25:16.061Z,30.60
2018-01-26T06:27:43.554Z,61.30
2018-01-26T06:30:11.020Z,40.43
2018-01-26T06:32:38.495Z,37.50
2018-01-26T06:35:05.966Z,33.33
2018-01-26T06:37:33.480Z,43.40
2018-01-26T06:40:00.986Z,44.60
2018-01-26T06:42:28.443Z,36.07
2018-01-26T06:44:55.962Z,35.87
2018-01-26T06:47:23.433Z,35.27
2018-01-26T06:49:50.920Z,26.53
2018-01-26T06:52:18.464Z,37.00
2018-01-26T06:54:45.934Z,41.67
2018-01-26T06:57:14.164Z,36.03
2018-01-26T06:59:42.404Z,36.83
2018-01-26T07:02:09.871Z,34.87
2018-01-26T07:04:37.324Z,44.50
2018-01-26T07:07:04.869Z,33.03
2018-01-26T07:09:33.139Z,31.10
2018-01-26T07:12:00.602Z,33.70
2018-01-26T07:14:28.082Z,36.97
2018-01-26T07:16:55.552Z,28.77
2018-01-26T07:19:23.799Z,30.13
2018-01-26T07:21:51.282Z,27.03
2018-01-26T07:24:18.790Z,27.93
2018-01-26T07:26:46.257Z,20.00
2018-01-26T07:29:13.746Z,14.33
2018-01-26T07:31:41.237Z,27.07
2018-01-26T07:34:08.770Z,27.30
2018-01-26T07:36:36.248Z,22.90
2018-01-26T07:39:04.487Z,28.37
2018-01-26T07:41:31.954Z,24.57
2018-01-26T07:43:59.437Z,17.53
2018-01-26T07:46:27.677Z,17.23
2018-01-26T07:48:55.156Z,19.20
2018-01-26T07:51:22.642Z,15.67
2018-01-26T07:53:50.877Z,18.57
2018-01-26T07:56:18.382Z,17.93
2018-01-26T07:58:46.628Z,26.07
2018-01-26T08:01:14.095Z,24.93
2018-01-26T08:03:42.395Z,25.33
2018-01-26T08:06:09.882Z,21.20
2018-01-26T08:08:37.398Z,27.47
2018-01-26T08:11:05.646Z,21.50
2018-01-26T08:13:33.117Z,20.67
2018-01-26T08:16:00.594Z,31.60
2018-01-26T08:18:28.866Z,23.57
2018-01-26T08:20:57.117Z,15.00
2018-01-26T08:23:24.597Z,22.63
2018-01-26T08:25:52.881Z,21.47
2018-01-26T08:28:21.124Z,22.00
2018-01-26T08:30:48.606Z,17.47
2018-01-26T08:33:17.498Z,24.97
2018-01-26T08:35:45.774Z,23.17
2018-01-26T08:38:13.238Z,20.07
2018-01-26T08:40:41.484Z,21.37
2018-01-26T08:43:08.952Z,24.13
2018-01-26T08:45:36.422Z,18.93
2018-01-26T08:48:03.906Z,12.97
2018-01-26T08:50:31.389Z,15.80
2018-01-26T08:52:58.870Z,16.70
2018-01-26T08:55:27.176Z,19.00
2018-01-26T08:57:54.648Z,12.20
2018-01-26T09:00:22.878Z,10.70
2018-01-26T09:02:50.339Z,9.80
2018-01-26T09:05:17.805Z,8.53
2018-01-26T09:07:45.431Z,22.07
2018-01-26T09:10:12.890Z,8.77
2018-01-26T09:12:40.378Z,8.63
2018-01-26T09:15:25.612Z,17.50
2018-01-26T09:17:53.629Z,12.57
2018-01-26T09:20:21.100Z,18.03
2018-01-26T09:22:48.594Z,14.53
2018-01-26T09:25:16.063Z,11.20
2018-01-26T09:27:43.538Z,13.73
2018-01-26T09:30:11.033Z,10.40
2018-01-26T09:32:38.510Z,8.93
2018-01-26T09:35:05.990Z,16.30
2018-01-26T09:37:33.452Z,8.90
2018-01-26T09:40:00.932Z,11.73
2018-01-26T09:42:28.391Z,8.03
2018-01-26T09:44:55.873Z,10.23
2018-01-26T09:47:23.349Z,11.80
2018-01-26T09:49:50.811Z,15.30
2018-01-26T09:52:19.035Z,8.70
2018-01-26T09:54:46.521Z,9.23
2018-01-26T09:57:13.979Z,9.37
2018-01-26T09:59:41.429Z,8.10
2018-01-26T10:02:08.890Z,8.20
2018-01-26T10:04:36.357Z,7.73
2018-01-26T10:07:03.823Z,8.70
2018-01-26T10:09:31.298Z,12.37
2018-01-26T10:11:59.534Z,13.50
2018-01-26T10:14:27.018Z,5.87
2018-01-26T10:16:54.488Z,8.10
2018-01-26T10:19:22.723Z,17.50
2018-01-26T10:21:50.220Z,13.47
2018-01-26T10:24:17.688Z,9.90
2018-01-26T10:26:45.932Z,9.20
2018-01-26T10:29:13.390Z,24.10
2018-01-26T10:31:40.903Z,11.73
2018-01-26T10:34:08.367Z,12.47
2018-01-26T10:36:35.870Z,12.00
2018-01-26T10:39:03.376Z,11.63
2018-01-26T10:41:30.853Z,7.73
2018-01-26T10:43:58.330Z,10.60
2018-01-26T10:46:25.794Z,16.73
2018-01-26T10:48:53.276Z,17.10
2018-01-26T10:51:20.738Z,4.80
2018-01-26T10:53:48.216Z,10.80
2018-01-26T10:56:16.450Z,14.87
2018-01-26T10:58:43.921Z,11.13
2018-01-26T11:01:11.382Z,11.50
2018-01-26T11:03:38.924Z,10.23
2018-01-26T11:06:06.384Z,10.00
2018-01-26T11:08:33.870Z,12.33
2018-01-26T11:11:01.334Z,10.00
2018-01-26T11:13:29.582Z,16.77
2018-01-26T11:15:57.057Z,6.53
2018-01-26T11:18:24.528Z,12.90
2018-01-26T11:20:53.005Z,12.47
2018-01-26T11:23:20.629Z,17.67
2018-01-26T11:25:48.450Z,13.90
2018-01-26T11:28:15.982Z,16.40
2018-01-26T11:30:43.513Z,13.90
2018-01-26T11:33:11.012Z,21.63
2018-01-26T11:35:39.247Z,14.27
2018-01-26T11:38:06.882Z,11.83
2018-01-26T11:40:34.526Z,18.77
2018-01-26T11:43:02.787Z,17.03
2018-01-26T11:45:30.241Z,10.50
2018-01-26T11:47:57.740Z,6.63
2018-01-26T11:50:25.239Z,19.47
2018-01-26T11:52:52.722Z,12.17
2018-01-26T11:55:20.963Z,9.47
2018-01-26T11:57:49.198Z,11.43
2018-01-26T12:00:16.687Z,21.37
2018-01-26T12:02:44.158Z,15.47
2018-01-26T12:05:12.400Z,14.27
2018-01-26T12:07:39.878Z,19.47
2018-01-26T12:10:07.347Z,10.10
2018-01-26T12:12:34.829Z,15.33
2018-01-26T12:15:02.310Z,14.10
2018-01-26T12:17:30.560Z,19.20
2018-01-26T12:19:58.031Z,15.27
2018-01-26T12:22:25.525Z,15.80
2018-01-26T12:24:53.015Z,13.47
2018-01-26T12:27:20.505Z,12.50
2018-01-26T12:29:48.028Z,15.83
2018-01-26T12:32:15.578Z,20.43
2018-01-26T12:34:43.031Z,14.90
2018-01-26T12:37:10.514Z,17.00
2018-01-26T12:39:38.025Z,13.53
2018-01-26T12:42:06.727Z,17.07
2018-01-26T12:44:34.214Z,11.03
2018-01-26T12:47:01.754Z,9.00
2018-01-26T12:49:29.251Z,16.37
2018-01-26T12:51:56.911Z,14.40
2018-01-26T12:54:24.410Z,20.17
2018-01-26T12:56:52.703Z,15.63
2018-01-26T12:59:20.214Z,13.83
2018-01-26T13:01:49.305Z,9.97
2018-01-26T13:04:17.029Z,10.57
2018-01-26T13:06:44.482Z,12.10
2018-01-26T13:09:11.957Z,10.07
2018-01-26T13:11:39.435Z,16.17
2018-01-26T13:14:06.946Z,9.90
2018-01-26T13:16:34.461Z,11.87
2018-01-26T13:19:01.955Z,18.87
2018-01-26T13:21:30.224Z,14.13
2018-01-26T13:23:58.703Z,8.40
2018-01-26T13:26:26.173Z,13.47
2018-01-26T13:28:54.489Z,11.03
2018-01-26T13:31:21.998Z,12.47
2018-01-26T13:33:49.542Z,11.33
2018-01-26T13:36:17.025Z,12.87
2018-01-26T13:38:45.408Z,8.40
2018-01-26T13:41:13.648Z,19.93
2018-01-26T13:43:41.118Z,14.70
2018-01-26T13:46:08.620Z,7.53
2018-01-26T13:48:36.078Z,11.33
2018-01-26T13:51:03.574Z,7.83
2018-01-26T13:53:31.032Z,13.17
2018-01-26T13:55:58.509Z,19.43
2018-01-26T13:58:25.999Z,23.07
2018-01-26T14:00:54.367Z,11.67
2018-01-26T14:03:22.699Z,18.73
2018-01-26T14:05:50.176Z,12.20
2018-01-26T14:08:17.651Z,20.50
2018-01-26T14:10:45.417Z,13.17
2018-01-26T14:13:12.918Z,14.67
2018-01-26T14:15:40.775Z,18.47
2018-01-26T14:18:08.273Z,11.90
2018-01-26T14:20:35.950Z,16.93
2018-01-26T14:23:04.322Z,9.40
2018-01-26T14:25:32.113Z,15.50
2018-01-26T14:27:59.639Z,12.70
2018-01-26T14:30:27.117Z,22.60
2018-01-26T14:32:54.626Z,22.77
2018-01-26T14:35:22.642Z,19.37
2018-01-26T14:37:50.919Z,19.27
2018-01-26T14:40:18.404Z,14.90
2018-01-26T14:42:45.881Z,15.70
2018-01-26T14:45:13.394Z,13.23
2018-01-26T14:47:40.939Z,18.80
2018-01-26T14:50:08.421Z,23.97
2018-01-26T14:52:35.886Z,20.70
2018-01-26T14:55:03.399Z,20.83
2018-01-26T14:57:30.860Z,30.77
2018-01-26T14:59:58.351Z,17.20
2018-01-26T15:02:25.838Z,21.67
2018-01-26T15:04:53.354Z,16.20
2018-01-26T15:07:20.838Z,19.50
2018-01-26T15:09:48.311Z,16.80
2018-01-26T15:12:16.566Z,14.97
2018-01-26T15:14:44.036Z,12.53
2018-01-26T15:17:11.527Z,19.60
2018-01-26T15:19:38.975Z,15.13
2018-01-26T15:22:07.223Z,11.07
2018-01-26T15:24:34.688Z,18.07
2018-01-26T15:27:02.222Z,17.80
2018-01-26T15:29:29.704Z,19.80
2018-01-26T15:31:57.199Z,11.93
2018-01-26T15:34:24.670Z,21.63
2018-01-26T15:36:52.132Z,12.80
2018-01-26T15:39:19.599Z,10.43
2018-01-26T15:41:47.098Z,13.93
2018-01-26T15:44:14.568Z,14.53
2018-01-26T15:46:42.810Z,20.50
2018-01-26T15:49:10.353Z,19.17
2018-01-26T15:51:37.851Z,21.47
2018-01-26T15:54:05.502Z,18.50
2018-01-26T15:56:33.144Z,14.70
2018-01-26T15:59:00.690Z,20.43
2018-01-26T16:01:28.167Z,18.37
2018-01-26T16:03:55.628Z,26.83
2018-01-26T16:06:23.109Z,18.10
2018-01-26T16:08:50.669Z,22.50
2018-01-26T16:11:18.941Z,23.73
2018-01-26T16:13:46.399Z,19.27
2018-01-26T16:16:13.876Z,37.80
2018-01-26T16:18:42.273Z,22.23
2018-01-26T16:21:09.773Z,32.47
2018-01-26T16:23:37.521Z,29.30
2018-01-26T16:26:04.994Z,23.33
2018-01-26T16:28:32.477Z,28.67
2018-01-26T16:31:00.132Z,25.60
2018-01-26T16:33:27.648Z,29.27
2018-01-26T16:35:55.118Z,42.63
2018-01-26T16:38:22.606Z,29.83
2018-01-26T16:40:50.066Z,29.30
2018-01-26T16:43:17.538Z,27.10
2018-01-26T16:45:45.034Z,32.63
2018-01-26T16:48:12.512Z,30.63
2018-01-26T16:50:39.971Z,28.50
2018-01-26T16:53:07.491Z,42.53
2018-01-26T16:55:35.747Z,26.57
2018-01-26T16:58:03.244Z,34.37
2018-01-26T17:00:31.467Z,33.37
2018-01-26T17:02:58.962Z,32.07
2018-01-26T17:05:27.209Z,40.97
2018-01-26T17:07:54.721Z,41.53
2018-01-26T17:10:22.194Z,58.33
2018-01-26T17:12:49.676Z,40.90
2018-01-26T17:15:17.242Z,38.10
2018-01-26T17:17:44.752Z,39.93
2018-01-26T17:20:12.205Z,35.67
2018-01-26T17:22:39.682Z,37.77
2018-01-26T17:25:07.163Z,42.00
2018-01-26T17:27:34.642Z,35.80
2018-01-26T17:30:02.135Z,51.60
2018-01-26T17:32:29.618Z,54.63
2018-01-26T17:34:57.113Z,50.73
2018-01-26T17:37:25.292Z,53.93
2018-01-26T17:39:52.878Z,58.63
2018-01-26T17:42:22.129Z,56.03
2018-01-26T17:44:50.508Z,47.27
2018-01-26T17:47:17.992Z,43.30
2018-01-26T17:49:46.382Z,62.37
2018-01-26T17:52:13.870Z,58.03
2018-01-26T17:54:41.531Z,38.57
2018-01-26T17:57:09.080Z,41.83
2018-01-26T17:59:37.328Z,48.90
2018-01-26T18:02:04.843Z,42.93
2018-01-26T18:04:32.328Z,64.87
2018-01-26T18:06:59.815Z,65.23
2018-01-26T18:09:27.281Z,64.70
2018-01-26T18:11:54.772Z,59.00
2018-01-26T18:14:22.290Z,43.10
2018-01-26T18:16:49.762Z,40.10
2018-01-26T18:19:18.042Z,53.10
2018-01-26T18:21:46.385Z,41.30
2018-01-26T18:24:13.873Z,44.90
2018-01-26T18:26:41.365Z,45.30
2018-01-26T18:29:08.855Z,42.90
2018-01-26T18:31:36.317Z,44.40
2018-01-26T18:34:03.882Z,57.80
2018-01-26T18:36:31.405Z,59.43
2018-01-26T18:38:58.913Z,60.67
2018-01-26T18:41:26.409Z,55.67
2018-01-26T18:43:53.915Z,49.33
2018-01-26T18:46:21.480Z,46.90
2018-01-26T18:48:49.816Z,48.83
2018-01-26T18:51:17.291Z,52.37
2018-01-26T18:53:44.774Z,40.67
2018-01-26T18:56:12.312Z,58.83
2018-01-26T18:58:39.795Z,55.07
2018-01-26T19:01:07.284Z,63.93
2018-01-26T19:03:34.767Z,76.10
2018-01-26T19:06:02.246Z,59.97
2018-01-26T19:08:29.756Z,52.20
2018-01-26T19:10:57.246Z,69.97
2018-01-26T19:13:24.749Z,59.17
2018-01-26T19:15:52.249Z,54.27
2018-01-26T19:18:20.491Z,54.40
2018-01-26T19:20:47.965Z,53.80
2018-01-26T19:23:15.430Z,63.97
2018-01-26T19:25:43.673Z,70.00
2018-01-26T19:28:11.222Z,52.90
2018-01-26T19:30:38.697Z,61.20
2018-01-26T19:33:06.181Z,58.23
2018-01-26T19:35:33.794Z,63.40
2018-01-26T19:38:01.368Z,46.40
2018-01-26T19:40:28.828Z,53.70
2018-01-26T19:42:56.340Z,60.53
2018-01-26T19:45:24.564Z,59.83
2018-01-26T19:47:52.072Z,72.30
2018-01-26T19:50:20.303Z,59.73
2018-01-26T19:52:48.067Z,64.77
2018-01-26T19:55:17.076Z,63.67
2018-01-26T19:57:44.838Z,55.57
2018-01-26T20:00:13.596Z,60.83
2018-01-26T20:02:41.110Z,51.77
2018-01-26T20:05:27.104Z,50.53
2018-01-26T20:08:00.381Z,64.17
2018-01-26T20:10:27.926Z,56.63
2018-01-26T20:13:01.044Z,46.50
2018-01-26T20:15:29.541Z,49.80
2018-01-26T20:17:57.187Z,60.10
2018-01-26T20:20:25.509Z,63.07
2018-01-26T20:22:53.014Z,65.13
2018-01-26T20:25:20.576Z,55.53
2018-01-26T20:27:48.065Z,60.33
2018-01-26T20:30:16.406Z,55.73
2018-01-26T20:32:44.173Z,58.00
2018-01-26T20:35:11.988Z,48.90
2018-01-26T20:37:39.603Z,73.50
2018-01-26T20:40:07.331Z,53.23
2018-01-26T20:42:35.173Z,55.60
2018-01-26T20:45:02.734Z,47.90
2018-01-26T20:47:30.219Z,41.73
2018-01-26T20:49:57.692Z,38.53
2018-01-26T20:52:25.213Z,46.40
2018-01-26T20:54:52.949Z,37.10
2018-01-26T20:57:20.720Z,39.20
2018-01-26T20:59:48.494Z,43.00
2018-01-26T21:02:16.102Z,36.07
2018-01-26T21:04:43.565Z,46.40
2018-01-26T21:07:11.305Z,39.70
2018-01-26T21:09:38.819Z,52.47
2018-01-26T21:12:06.615Z,51.90
2018-01-26T21:14:34.751Z,42.47
2018-01-26T21:17:02.231Z,34.70
2018-01-26T21:19:30.489Z,42.17
2018-01-26T21:21:58.007Z,35.97
2018-01-26T21:24:25.530Z,39.23
2018-01-26T21:26:53.813Z,36.00
2018-01-26T21:29:22.058Z,35.03
2018-01-26T21:31:49.617Z,49.37
2018-01-26T21:34:17.147Z,34.43
2018-01-26T21:36:44.627Z,39.20
2018-01-26T21:39:12.098Z,41.40
2018-01-26T21:41:39.581Z,49.23
2018-01-26T21:44:07.839Z,56.53
2018-01-26T21:46:35.391Z,43.53
2018-01-26T21:49:02.936Z,41.33
2018-01-26T21:51:30.441Z,47.10
2018-01-26T21:53:57.904Z,40.13
2018-01-26T21:56:25.418Z,37.40
2018-01-26T21:58:52.892Z,39.70
2018-01-26T22:01:20.368Z,50.20
2018-01-26T22:03:48.653Z,46.73
2018-01-26T22:06:22.506Z,46.27
2018-01-26T22:08:49.979Z,47.30
2018-01-26T22:11:17.465Z,42.43
2018-01-26T22:13:45.703Z,48.63
2018-01-26T22:16:13.177Z,55.83
2018-01-26T22:18:40.663Z,37.50
2018-01-26T22:21:08.913Z,48.40
2018-01-26T22:23:36.430Z,45.73
2018-01-26T22:26:03.890Z,39.83
2018-01-26T22:28:31.388Z,54.93
2018-01-26T22:30:58.849Z,45.80
2018-01-26T22:33:26.398Z,49.90
2018-01-26T22:35:53.857Z,54.93
2018-01-26T22:38:21.339Z,44.80
2018-01-26T22:40:48.822Z,52.77
2018-01-26T22:43:16.304Z,46.00
2018-01-26T22:45:43.768Z,46.67
2018-01-26T22:48:11.239Z,48.50
2018-01-26T22:50:38.730Z,52.47
2018-01-26T22:53:06.215Z,54.00
2018-01-26T22:55:33.709Z,67.77
2018-01-26T22:58:01.174Z,61.40
2018-01-26T23:00:28.734Z,61.70
2018-01-26T23:02:56.205Z,63.63
2018-01-26T23:05:23.671Z,55.07
2018-01-26T23:07:51.154Z,56.53
2018-01-26T23:10:19.399Z,49.53
2018-01-26T23:12:46.879Z,51.00
2018-01-26T23:15:14.350Z,59.43
2018-01-26T23:17:42.590Z,47.20
2018-01-26T23:20:10.048Z,52.43
2018-01-26T23:22:37.565Z,63.13
2018-01-26T23:25:05.081Z,55.50
2018-01-26T23:27:32.568Z,58.13
2018-01-26T23:30:00.798Z,52.30
2018-01-26T23:32:28.270Z,52.60
2018-01-26T23:34:55.727Z,61.77
2018-01-26T23:37:23.218Z,60.53
2018-01-26T23:39:51.454Z,55.90
2018-01-26T23:42:18.922Z,50.97
2018-01-26T23:44:46.399Z,58.50
2018-01-26T23:47:14.645Z,47.50
2018-01-26T23:49:42.133Z,63.37
2018-01-26T23:52:09.593Z,59.83
2018-01-26T23:54:37.109Z,55.90
2018-01-26T23:57:04.573Z,64.63
2018-01-26T23:59:32.043Z,61.10
